Sct Santiago — V7NF7 — position and weather

sailwx.info

Track history (hours):
 
Tides and Currents Weather Stations Pressure Air Temp Water Temp Dewpoint Dewpoint Depression Visibility Wind Speed Wind Dir Waves Ship Positions

Sct Santiago

Last reported at 2014-Aug-28 22:33 UTC. Time now 2014-Aug-28 23:18 UTC.
Position N 39°40' E 025°45'.

Length 294 m; draft 8.3 m.

Type: Cargo ship. MMSI: 538002953.

Date/timePositionNaut miles runAvg speedWind from/ knotsBaromVisibWave heightAir tempDewpointWater temp
2014-Aug-28 22:33N 39°40' E 025°45'5617.8
2014-Aug-28 19:23N 38°50' E 025°11'6516.9
2014-Aug-28 15:33N 37°53' E 024°33'2014.9
2014-Aug-28 14:13N 37°40' E 024°13'914.2
2014-Aug-28 13:33N 37°34' E 024°04'1413.9
2014-Aug-28 12:32N 37°35' E 023°47'1312.8
2014-Aug-28 11:33N 37°46' E 023°39'1111.3
2014-Aug-28 10:33N 37°57' E 023°36'0 0.4
2014-Aug-28 09:31N 37°57' E 023°35'0 0.0
2014-Aug-28 08:31N 37°57' E 023°35'0 0.0
2014-Aug-28 07:31N 37°57' E 023°35'0 0.0
2014-Aug-28 06:31N 37°57' E 023°35'0 0.0
2014-Aug-28 05:31N 37°57' E 023°35'0 0.0
2014-Aug-28 04:19N 37°57' E 023°35'0 0.0
2014-Aug-28 03:31N 37°57' E 023°35'0 0.0
2014-Aug-28 02:28N 37°57' E 023°35'0 0.0
2014-Aug-28 01:31N 37°57' E 023°35'0 0.0
2014-Aug-28 00:31N 37°57' E 023°35'0 0.0
2014-Aug-27 23:31N 37°57' E 023°35'0 0.0
2014-Aug-27 22:31N 37°57' E 023°35'0 0.0
2014-Aug-27 21:31N 37°57' E 023°35'0 0.0
2014-Aug-27 20:31N 37°57' E 023°35'0 0.0
2014-Aug-27 19:31N 37°57' E 023°35'0 0.0
2014-Aug-27 18:33N 37°57' E 023°35'0 0.0
2014-Aug-27 17:33N 37°57' E 023°35'0 0.0
2014-Aug-27 16:33N 37°57' E 023°35'0 0.0
2014-Aug-27 15:33N 37°57' E 023°35'0 0.0
2014-Aug-27 14:33N 37°57' E 023°35'0 0.0
2014-Aug-27 13:33N 37°57' E 023°35'0 0.0
2014-Aug-27 12:33N 37°57' E 023°35'0 0.0
2014-Aug-27 11:33N 37°57' E 023°35'0 0.0
2014-Aug-27 10:33N 37°57' E 023°35'0 0.0
2014-Aug-27 09:33N 37°57' E 023°35'0 0.0
2014-Aug-27 08:33N 37°57' E 023°35'0 0.0
2014-Aug-27 07:33N 37°57' E 023°35'0 0.0
2014-Aug-27 06:33N 37°57' E 023°35'0 0.0
2014-Aug-27 05:33N 37°57' E 023°35'0 0.1
2014-Aug-27 04:34N 37°57' E 023°35'2 2.5
2014-Aug-27 03:34N 37°55' E 023°36'3 2.8
2014-Aug-27 02:34N 37°52' E 023°38'1111.4
2014-Aug-27 01:33N 37°42' E 023°45'1917.2
2014-Aug-27 00:27N 37°24' E 023°53'1517.3
2014-Aug-26 23:33N 37°10' E 023°59'1717.0
2014-Aug-26 22:33N 36°54' E 024°07'1717.2
2014-Aug-26 21:34N 36°37' E 024°13'1717.1
2014-Aug-26 20:34N 36°27' E 024°30'1717.0
2014-Aug-26 19:34N 36°18' E 024°48'1716.5
2014-Aug-26 18:34N 36°09' E 025°06'1717.2
2014-Aug-26 17:34N 36°00' E 025°24'1717.1
2014-Aug-26 16:33N 35°51' E 025°42'1816.6
2014-Aug-26 15:28N 35°42' E 026°00'1516.5
2014-Aug-26 14:32N 35°33' E 026°17'1916.7
2014-Aug-26 13:25N 35°24' E 026°36'17316.8
2014-Aug-26 03:07N 33°35' E 029°20'916.7
2014-Aug-26 02:34N 33°29' E 029°28'1716.6
2014-Aug-26 01:33N 33°18' E 029°44'1716.8
2014-Aug-26 00:34N 33°07' E 029°59'1716.7
2014-Aug-25 23:33N 32°57' E 030°15'1716.9
2014-Aug-25 22:33N 32°47' E 030°31'1717.0
2014-Aug-25 21:34N 32°36' E 030°46'1717.1
2014-Aug-25 20:34N 32°24' E 031°01'1717.0
2014-Aug-25 19:34N 32°14' E 031°17'1717.2
2014-Aug-25 18:34N 32°03' E 031°33'1716.9
2014-Aug-25 17:34N 31°52' E 031°49'2116.9
2014-Aug-25 16:19N 31°38' E 032°07'1216.5
2014-Aug-25 15:34N 31°30' E 032°18'1313.0
2014-Aug-25 14:33N 31°18' E 032°22'9 9.2
2014-Aug-25 13:32N 31°09' E 032°19'1010.1
2014-Aug-25 12:33N 30°59' E 032°19'11 9.9
2014-Aug-25 11:28N 30°48' E 032°19'  
Track history (hours):
 
Tides and Currents Weather Stations Pressure Air Temp Water Temp Dewpoint Dewpoint Depression Visibility Wind Speed Wind Dir Waves Ship Positions

Sct Santiago

Last reported at 2014-Aug-28 22:33 UTC. Time now 2014-Aug-28 23:18 UTC.
Position N 39°40' E 025°45'.

Length 294 m; draft 8.3 m.

Type: Cargo ship. MMSI: 538002953.

Date/timePositionNaut miles runAvg speedWind from/ knotsBaromVisibWave heightAir tempDewpointWater temp
2014-Aug-28 22:33N 39°40' E 025°45'5617.8
2014-Aug-28 19:23N 38°50' E 025°11'6516.9
2014-Aug-28 15:33N 37°53' E 024°33'2014.9
2014-Aug-28 14:13N 37°40' E 024°13'914.2
2014-Aug-28 13:33N 37°34' E 024°04'1413.9
2014-Aug-28 12:32N 37°35' E 023°47'1312.8
2014-Aug-28 11:33N 37°46' E 023°39'1111.3
2014-Aug-28 10:33N 37°57' E 023°36'0 0.4
2014-Aug-28 09:31N 37°57' E 023°35'0 0.0
2014-Aug-28 08:31N 37°57' E 023°35'0 0.0
2014-Aug-28 07:31N 37°57' E 023°35'0 0.0
2014-Aug-28 06:31N 37°57' E 023°35'0 0.0
2014-Aug-28 05:31N 37°57' E 023°35'0 0.0
2014-Aug-28 04:19N 37°57' E 023°35'0 0.0
2014-Aug-28 03:31N 37°57' E 023°35'0 0.0
2014-Aug-28 02:28N 37°57' E 023°35'0 0.0
2014-Aug-28 01:31N 37°57' E 023°35'0 0.0
2014-Aug-28 00:31N 37°57' E 023°35'0 0.0
2014-Aug-27 23:31N 37°57' E 023°35'0 0.0
2014-Aug-27 22:31N 37°57' E 023°35'0 0.0
2014-Aug-27 21:31N 37°57' E 023°35'0 0.0
2014-Aug-27 20:31N 37°57' E 023°35'0 0.0
2014-Aug-27 19:31N 37°57' E 023°35'0 0.0
2014-Aug-27 18:33N 37°57' E 023°35'0 0.0
2014-Aug-27 17:33N 37°57' E 023°35'0 0.0
2014-Aug-27 16:33N 37°57' E 023°35'0 0.0
2014-Aug-27 15:33N 37°57' E 023°35'0 0.0
2014-Aug-27 14:33N 37°57' E 023°35'0 0.0
2014-Aug-27 13:33N 37°57' E 023°35'0 0.0
2014-Aug-27 12:33N 37°57' E 023°35'0 0.0
2014-Aug-27 11:33N 37°57' E 023°35'0 0.0
2014-Aug-27 10:33N 37°57' E 023°35'0 0.0
2014-Aug-27 09:33N 37°57' E 023°35'0 0.0
2014-Aug-27 08:33N 37°57' E 023°35'0 0.0
2014-Aug-27 07:33N 37°57' E 023°35'0 0.0
2014-Aug-27 06:33N 37°57' E 023°35'0 0.0
2014-Aug-27 05:33N 37°57' E 023°35'0 0.1
2014-Aug-27 04:34N 37°57' E 023°35'2 2.5
2014-Aug-27 03:34N 37°55' E 023°36'3 2.8
2014-Aug-27 02:34N 37°52' E 023°38'1111.4
2014-Aug-27 01:33N 37°42' E 023°45'1917.2
2014-Aug-27 00:27N 37°24' E 023°53'1517.3
2014-Aug-26 23:33N 37°10' E 023°59'1717.0
2014-Aug-26 22:33N 36°54' E 024°07'1717.2
2014-Aug-26 21:34N 36°37' E 024°13'1717.1
2014-Aug-26 20:34N 36°27' E 024°30'1717.0
2014-Aug-26 19:34N 36°18' E 024°48'1716.5
2014-Aug-26 18:34N 36°09' E 025°06'1717.2
2014-Aug-26 17:34N 36°00' E 025°24'1717.1
2014-Aug-26 16:33N 35°51' E 025°42'1816.6
2014-Aug-26 15:28N 35°42' E 026°00'1516.5
2014-Aug-26 14:32N 35°33' E 026°17'1916.7
2014-Aug-26 13:25N 35°24' E 026°36'17316.8
2014-Aug-26 03:07N 33°35' E 029°20'916.7
2014-Aug-26 02:34N 33°29' E 029°28'1716.6
2014-Aug-26 01:33N 33°18' E 029°44'1716.8
2014-Aug-26 00:34N 33°07' E 029°59'1716.7
2014-Aug-25 23:33N 32°57' E 030°15'1716.9
2014-Aug-25 22:33N 32°47' E 030°31'1717.0
2014-Aug-25 21:34N 32°36' E 030°46'1717.1
2014-Aug-25 20:34N 32°24' E 031°01'1717.0
2014-Aug-25 19:34N 32°14' E 031°17'1717.2
2014-Aug-25 18:34N 32°03' E 031°33'1716.9
2014-Aug-25 17:34N 31°52' E 031°49'2116.9
2014-Aug-25 16:19N 31°38' E 032°07'1216.5
2014-Aug-25 15:34N 31°30' E 032°18'1313.0
2014-Aug-25 14:33N 31°18' E 032°22'9 9.2
2014-Aug-25 13:32N 31°09' E 032°19'1010.1
2014-Aug-25 12:33N 30°59' E 032°19'11 9.9
2014-Aug-25 11:28N 30°48' E 032°19'  

Dump ship's entire track history